Time,TemperatureF,DewpointF,PressureIn,WindDirection,WindDirectionDegrees,WindSpeedMPH,WindSpeedGustMPH,Humidity,HourlyPrecipIn,Conditions,Clouds,dailyrainin,SoftwareType,DateUTC
2013-02-03 00:00:00,18.1,15.4,30.05,SSE,159,1.0,4.0,89,0.00,,---,0.00,VWS V14.01,2013-02-03 06:00:00,
2013-02-03 00:03:00,17.9,14.9,30.08,South,188,0.0,0.0,88,0.00,,---,0.00,VWS V14.01,2013-02-03 06:03:00,
2013-02-03 00:08:00,18.0,15.1,30.07,SSE,150,1.0,4.0,88,0.00,,---,0.00,VWS V14.01,2013-02-03 06:08:00,
2013-02-03 00:13:00,18.0,15.1,30.07,SSE,150,3.0,4.0,88,0.00,,---,0.00,VWS V14.01,2013-02-03 06:13:00,
2013-02-03 00:18:00,18.0,15.1,30.07,SSE,153,5.0,5.0,88,0.00,,---,0.00,VWS V14.01,2013-02-03 06:18:00,
2013-02-03 00:23:00,18.0,15.1,30.07,SSE,154,0.0,5.0,88,0.00,,---,0.00,VWS V14.01,2013-02-03 06:23:00,
2013-02-03 00:28:00,18.0,15.1,30.06,SSE,154,3.0,3.0,88,0.00,,---,0.00,VWS V14.01,2013-02-03 06:28:00,
2013-02-03 00:30:00,18.5,15.8,30.05,SSE,159,1.0,4.0,89,0.00,,---,0.00,VWS V14.01,2013-02-03 06:30:00,
2013-02-03 00:34:00,18.0,15.1,30.06,SSE,156,3.0,3.0,88,0.00,,---,0.00,VWS V14.01,2013-02-03 06:34:00,
2013-02-03 00:39:00,18.0,15.3,30.06,SSE,157,2.0,3.0,89,0.00,,---,0.00,VWS V14.01,2013-02-03 06:39:00,
2013-02-03 00:44:00,18.1,15.4,30.06,SSE,157,0.0,3.0,89,0.00,,---,0.00,VWS V14.01,2013-02-03 06:44:00,
2013-02-03 00:49:00,18.1,15.4,30.06,SSE,159,3.0,3.0,89,0.00,,---,0.00,VWS V14.01,2013-02-03 06:49:00,
2013-02-03 00:54:00,18.1,15.4,30.06,SSE,159,3.0,4.0,89,0.00,,---,0.00,VWS V14.01,2013-02-03 06:54:00,
2013-02-03 00:59:00,18.2,15.5,30.05,SSE,159,0.0,1.0,89,0.00,,---,0.00,VWS V14.01,2013-02-03 06:59:00,
2013-02-03 01:00:00,18.5,16.1,30.04,SSE,161,2.0,5.0,90,0.00,,---,0.00,VWS V14.01,2013-02-03 07:00:00,
2013-02-03 01:04:00,18.2,15.5,30.05,SSE,159,1.0,2.0,89,0.00,,---,0.00,VWS V14.01,2013-02-03 07:04:00,
2013-02-03 01:09:00,18.2,15.5,30.05,SSE,159,3.0,4.0,89,0.00,,---,0.00,VWS V14.01,2013-02-03 07:09:00,
2013-02-03 01:15:00,18.3,15.6,30.05,SSE,159,1.0,4.0,89,0.00,,---,0.00,VWS V14.01,2013-02-03 07:15:00,
2013-02-03 01:20:00,18.4,15.7,30.05,SSE,159,1.0,4.0,89,0.00,,---,0.00,VWS V14.01,2013-02-03 07:20:00,
2013-02-03 01:25:00,18.4,15.7,30.05,SSE,159,0.0,4.0,89,0.00,,---,0.00,VWS V14.01,2013-02-03 07:25:00,
2013-02-03 01:30:00,18.5,15.8,30.05,SSE,159,1.0,2.0,89,0.00,,---,0.00,VWS V14.01,2013-02-03 07:30:00,
2013-02-03 01:35:00,18.5,15.8,30.04,SSE,159,2.0,2.0,89,0.00,,---,0.00,VWS V14.01,2013-02-03 07:35:00,
2013-02-03 01:40:00,18.5,15.8,30.05,SSE,159,3.0,4.0,89,0.00,,---,0.00,VWS V14.01,2013-02-03 07:40:00,
2013-02-03 01:45:00,18.5,15.8,30.04,SSE,160,3.0,4.0,89,0.00,,---,0.00,VWS V14.01,2013-02-03 07:45:00,
2013-02-03 01:50:00,18.5,16.1,30.04,SSE,166,3.0,4.0,90,0.00,,---,0.00,VWS V14.01,2013-02-03 07:50:00,
2013-02-03 01:56:00,18.6,16.2,30.04,SSE,167,1.0,4.0,90,0.00,,---,0.00,VWS V14.01,2013-02-03 07:56:00,
2013-02-03 02:00:00,18.6,16.7,30.03,South,169,0.0,4.0,92,0.00,,---,0.00,VWS V14.01,2013-02-03 08:00:00,
2013-02-03 02:01:00,18.5,16.1,30.04,SSE,162,1.0,4.0,90,0.00,,---,0.00,VWS V14.01,2013-02-03 08:01:00,
2013-02-03 02:06:00,18.5,16.1,30.04,SSE,163,2.0,4.0,90,0.00,,---,0.00,VWS V14.01,2013-02-03 08:06:00,
2013-02-03 02:11:00,18.5,16.1,30.04,SSE,163,1.0,4.0,90,0.00,,---,0.00,VWS V14.01,2013-02-03 08:11:00,
2013-02-03 02:16:00,18.6,16.4,30.04,SSE,166,1.0,4.0,91,0.00,,---,0.00,VWS V14.01,2013-02-03 08:16:00,
2013-02-03 02:21:00,18.5,16.3,30.04,SSE,165,1.0,5.0,91,0.00,,---,0.00,VWS V14.01,2013-02-03 08:21:00,
2013-02-03 02:26:00,18.6,16.4,30.03,SSE,165,0.0,5.0,91,0.00,,---,0.00,VWS V14.01,2013-02-03 08:26:00,
2013-02-03 02:30:00,18.9,17.0,30.02,South,173,0.0,2.0,92,0.00,,---,0.00,VWS V14.01,2013-02-03 08:30:00,
2013-02-03 02:31:00,18.6,16.4,30.03,SSE,165,3.0,4.0,91,0.00,,---,0.00,VWS V14.01,2013-02-03 08:31:00,
2013-02-03 02:37:00,18.6,16.7,30.03,SSE,165,2.0,4.0,92,0.00,,---,0.00,VWS V14.01,2013-02-03 08:37:00,
2013-02-03 02:42:00,18.6,16.7,30.03,SSE,165,1.0,4.0,92,0.00,,---,0.00,VWS V14.01,2013-02-03 08:42:00,
2013-02-03 02:47:00,18.6,16.7,30.03,South,174,1.0,4.0,92,0.00,,---,0.00,VWS V14.01,2013-02-03 08:47:00,
2013-02-03 02:52:00,18.6,16.7,30.03,South,169,2.0,4.0,92,0.00,,---,0.00,VWS V14.01,2013-02-03 08:52:00,
2013-02-03 02:57:00,18.6,16.7,30.03,South,169,1.0,4.0,92,0.00,,---,0.00,VWS V14.01,2013-02-03 08:57:00,
2013-02-03 03:00:00,19.2,17.5,30.01,South,180,2.0,3.0,93,0.00,,---,0.00,VWS V14.01,2013-02-03 09:00:00,
2013-02-03 03:02:00,18.7,16.8,30.02,South,169,2.0,2.0,92,0.00,,---,0.00,VWS V14.01,2013-02-03 09:02:00,
2013-02-03 03:07:00,18.8,16.9,30.03,South,169,1.0,2.0,92,0.00,,---,0.00,VWS V14.01,2013-02-03 09:07:00,
2013-02-03 03:12:00,18.8,16.9,30.03,South,169,0.0,2.0,92,0.00,,---,0.00,VWS V14.01,2013-02-03 09:12:00,
2013-02-03 03:18:00,18.8,16.9,30.02,South,169,1.0,2.0,92,0.00,,---,0.00,VWS V14.01,2013-02-03 09:18:00,
2013-02-03 03:23:00,18.8,16.9,30.02,South,170,0.0,2.0,92,0.00,,---,0.00,VWS V14.01,2013-02-03 09:23:00,
2013-02-03 03:28:00,18.9,17.0,30.02,South,173,1.0,2.0,92,0.00,,---,0.00,VWS V14.01,2013-02-03 09:28:00,
2013-02-03 03:30:00,19.5,17.8,30.02,SSW,198,1.0,4.0,93,0.00,,---,0.00,VWS V14.01,2013-02-03 09:30:00,
2013-02-03 03:33:00,18.9,17.0,30.02,South,175,2.0,3.0,92,0.00,,---,0.00,VWS V14.01,2013-02-03 09:33:00,
2013-02-03 03:38:00,19.0,17.1,30.02,South,179,2.0,3.0,92,0.00,,---,0.00,VWS V14.01,2013-02-03 09:38:00,
2013-02-03 03:43:00,19.0,17.3,30.01,South,175,1.0,3.0,93,0.00,,---,0.00,VWS V14.01,2013-02-03 09:43:00,
2013-02-03 03:48:00,19.1,17.4,30.01,South,173,0.0,3.0,93,0.00,,---,0.00,VWS V14.01,2013-02-03 09:48:00,
2013-02-03 03:53:00,19.1,17.4,30.01,South,179,3.0,3.0,93,0.00,,---,0.00,VWS V14.01,2013-02-03 09:53:00,
2013-02-03 03:59:00,19.2,17.5,30.02,South,180,2.0,2.0,93,0.00,,---,0.00,VWS V14.01,2013-02-03 09:59:00,
2013-02-03 04:00:00,20.5,18.8,30.02,WSW,242,4.0,12.0,93,0.00,,---,0.00,VWS V14.01,2013-02-03 10:00:00,
2013-02-03 04:04:00,19.3,17.6,30.01,South,182,1.0,2.0,93,0.00,,---,0.00,VWS V14.01,2013-02-03 10:04:00,
2013-02-03 04:09:00,19.3,17.6,30.01,South,183,2.0,3.0,93,0.00,,---,0.00,VWS V14.01,2013-02-03 10:09:00,
2013-02-03 04:14:00,19.4,17.7,30.02,South,183,1.0,3.0,93,0.00,,---,0.00,VWS V14.01,2013-02-03 10:14:00,
2013-02-03 04:19:00,19.4,17.7,30.02,South,191,2.0,4.0,93,0.00,,---,0.00,VWS V14.01,2013-02-03 10:19:00,
2013-02-03 04:24:00,19.4,17.7,30.02,SSW,202,1.0,4.0,93,0.00,,---,0.00,VWS V14.01,2013-02-03 10:24:00,
2013-02-03 04:29:00,19.5,17.8,30.02,SSW,198,0.0,2.0,93,0.00,,---,0.00,VWS V14.01,2013-02-03 10:29:00,
2013-02-03 04:30:00,21.3,19.6,30.02,WSW,237,2.0,10.0,93,0.00,,---,0.00,VWS V14.01,2013-02-03 10:30:00,
2013-02-03 04:34:00,19.5,17.8,30.02,SW,218,2.0,3.0,93,0.00,,---,0.00,VWS V14.01,2013-02-03 10:34:00,
2013-02-03 04:40:00,19.6,17.9,30.02,South,184,1.0,5.0,93,0.00,,---,0.00,VWS V14.01,2013-02-03 10:40:00,
2013-02-03 04:44:00,19.7,18.0,30.02,SW,232,1.0,5.0,93,0.00,,---,0.00,VWS V14.01,2013-02-03 10:44:00,
2013-02-03 04:49:00,19.8,18.1,30.02,SW,218,1.0,8.0,93,0.00,,---,0.00,VWS V14.01,2013-02-03 10:49:00,
2013-02-03 04:55:00,20.2,18.5,30.02,WSW,238,3.0,12.0,93,0.00,,---,0.00,VWS V14.01,2013-02-03 10:55:00,
2013-02-03 05:00:00,20.6,18.9,30.02,WSW,248,0.0,6.0,93,0.00,,---,0.00,VWS V14.01,2013-02-03 11:00:00,
2013-02-03 05:05:00,20.9,19.2,30.02,WSW,246,3.0,9.0,93,0.00,,---,0.00,VWS V14.01,2013-02-03 11:05:00,
2013-02-03 05:10:00,21.1,19.4,30.02,SW,232,5.0,10.0,93,0.00,,---,0.00,VWS V14.01,2013-02-03 11:10:00,
2013-02-03 05:15:00,21.1,19.4,30.02,SW,236,1.0,10.0,93,0.00,,---,0.00,VWS V14.01,2013-02-03 11:15:00,
2013-02-03 05:20:00,21.1,19.4,30.02,WSW,246,7.0,10.0,93,0.00,,---,0.00,VWS V14.01,2013-02-03 11:20:00,
2013-02-03 05:25:00,21.2,19.5,30.02,WSW,251,3.0,10.0,93,0.00,,---,0.00,VWS V14.01,2013-02-03 11:25:00,
2013-02-03 05:30:00,21.4,19.7,30.02,WSW,244,2.0,5.0,93,0.00,,---,0.00,VWS V14.01,2013-02-03 11:30:00,
2013-02-03 05:35:00,21.6,19.9,30.02,WSW,248,6.0,8.0,93,0.00,,---,0.00,VWS V14.01,2013-02-03 11:35:00,
2013-02-03 05:40:00,21.8,20.1,30.02,WSW,248,6.0,10.0,93,0.00,,---,0.00,VWS V14.01,2013-02-03 11:40:00,
2013-02-03 05:45:00,21.9,20.2,30.02,WSW,251,3.0,10.0,93,0.00,,---,0.00,VWS V14.01,2013-02-03 11:45:00,
2013-02-03 05:50:00,22.0,20.3,30.02,West,259,5.0,10.0,93,0.00,,---,0.00,VWS V14.01,2013-02-03 11:50:00,
2013-02-03 05:55:00,22.4,20.7,30.02,West,267,7.0,11.0,93,0.00,,---,0.00,VWS V14.01,2013-02-03 11:55:00,
2013-02-03 06:00:00,25.2,21.9,30.05,WNW,288,19.0,25.0,87,0.00,,---,0.00,VWS V14.01,2013-02-03 12:00:00,
2013-02-03 06:01:00,23.4,21.7,30.02,West,268,13.0,16.0,93,0.00,,---,0.00,VWS V14.01,2013-02-03 12:01:00,
2013-02-03 06:06:00,24.3,22.3,30.02,West,261,13.0,17.0,92,0.00,,---,0.00,VWS V14.01,2013-02-03 12:06:00,
2013-02-03 06:11:00,25.0,22.8,30.02,West,269,16.0,24.0,91,0.00,,---,0.00,VWS V14.01,2013-02-03 12:11:00,
2013-02-03 06:16:00,25.2,22.7,30.02,West,281,16.0,24.0,90,0.00,,---,0.00,VWS V14.01,2013-02-03 12:16:00,
2013-02-03 06:21:00,25.3,22.5,30.02,WNW,283,18.0,24.0,89,0.00,,---,0.00,VWS V14.01,2013-02-03 12:21:00,
2013-02-03 06:26:00,25.3,22.5,30.02,WNW,286,17.0,24.0,89,0.00,,---,0.00,VWS V14.01,2013-02-03 12:26:00,
2013-02-03 06:30:00,24.8,21.5,30.06,WNW,300,19.0,25.0,87,0.00,,---,0.00,VWS V14.01,2013-02-03 12:30:00,
2013-02-03 06:31:00,25.4,22.6,30.03,WNW,282,15.0,23.0,89,0.00,,---,0.00,VWS V14.01,2013-02-03 12:31:00,
2013-02-03 06:36:00,25.4,22.4,30.03,WNW,286,21.0,23.0,88,0.00,,---,0.00,VWS V14.01,2013-02-03 12:36:00,
2013-02-03 06:41:00,25.3,22.0,30.03,WNW,290,15.0,23.0,87,0.00,,---,0.00,VWS V14.01,2013-02-03 12:41:00,
2013-02-03 06:46:00,25.3,22.0,30.03,West,279,15.0,24.0,87,0.00,,---,0.00,VWS V14.01,2013-02-03 12:46:00,
2013-02-03 06:51:00,25.2,21.9,30.04,WNW,293,22.0,24.0,87,0.00,,---,0.00,VWS V14.01,2013-02-03 12:51:00,
2013-02-03 06:57:00,25.2,21.9,30.04,West,277,22.0,25.0,87,0.00,,---,0.00,VWS V14.01,2013-02-03 12:57:00,
2013-02-03 07:00:00,24.5,20.9,30.07,West,281,16.0,23.0,86,0.00,,---,0.00,VWS V14.01,2013-02-03 13:00:00,
2013-02-03 07:02:00,25.2,21.6,30.05,WNW,299,17.0,25.0,86,0.00,,---,0.00,VWS V14.01,2013-02-03 13:02:00,
2013-02-03 07:07:00,25.2,21.6,30.05,WNW,284,12.0,25.0,86,0.00,,---,0.00,VWS V14.01,2013-02-03 13:07:00,
2013-02-03 07:12:00,25.1,21.8,30.05,WNW,298,21.0,25.0,87,0.00,,---,0.00,VWS V14.01,2013-02-03 13:12:00,
2013-02-03 07:17:00,25.0,21.7,30.06,WNW,298,19.0,25.0,87,0.00,,---,0.00,VWS V14.01,2013-02-03 13:17:00,
2013-02-03 07:22:00,24.9,21.6,30.06,WNW,298,17.0,25.0,87,0.00,,---,0.00,VWS V14.01,2013-02-03 13:22:00,
2013-02-03 07:27:00,24.9,21.6,30.06,WNW,289,20.0,25.0,87,0.00,,---,0.00,VWS V14.01,2013-02-03 13:27:00,
2013-02-03 07:30:00,23.4,19.6,30.09,WNW,286,14.0,27.0,85,0.00,,---,0.00,VWS V14.01,2013-02-03 13:30:00,
2013-02-03 07:32:00,24.8,21.5,30.06,WNW,303,18.0,19.0,87,0.00,,---,0.00,VWS V14.01,2013-02-03 13:32:00,
2013-02-03 07:37:00,24.7,21.4,30.06,WNW,297,15.0,19.0,87,0.00,,---,0.00,VWS V14.01,2013-02-03 13:37:00,
2013-02-03 07:43:00,24.7,21.4,30.06,WNW,292,11.0,19.0,87,0.00,,---,0.00,VWS V14.01,2013-02-03 13:43:00,
2013-02-03 07:48:00,24.7,21.7,30.07,WNW,300,16.0,19.0,88,0.00,,---,0.00,VWS V14.01,2013-02-03 13:48:00,
2013-02-03 07:53:00,24.6,21.6,30.07,WNW,289,12.0,19.0,88,0.00,,---,0.00,VWS V14.01,2013-02-03 13:53:00,
2013-02-03 07:58:00,24.5,21.2,30.07,WNW,284,18.0,23.0,87,0.00,,---,0.00,VWS V14.01,2013-02-03 13:58:00,
2013-02-03 08:00:00,22.6,18.8,30.10,West,281,23.0,29.0,85,0.00,,---,0.00,VWS V14.01,2013-02-03 14:00:00,
2013-02-03 08:03:00,24.3,20.5,30.07,WNW,283,20.0,27.0,85,0.00,,---,0.00,VWS V14.01,2013-02-03 14:03:00,
2013-02-03 08:08:00,23.9,19.8,30.08,WNW,286,22.0,27.0,84,0.00,,---,0.00,VWS V14.01,2013-02-03 14:08:00,
2013-02-03 08:13:00,23.8,19.7,30.08,West,269,19.0,27.0,84,0.00,,---,0.00,VWS V14.01,2013-02-03 14:13:00,
2013-02-03 08:18:00,23.6,19.5,30.08,West,275,22.0,27.0,84,0.00,,---,0.00,VWS V14.01,2013-02-03 14:18:00,
2013-02-03 08:23:00,23.4,19.3,30.08,WNW,286,19.0,27.0,84,0.00,,---,0.00,VWS V14.01,2013-02-03 14:23:00,
2013-02-03 08:28:00,23.4,19.6,30.09,WNW,286,14.0,27.0,85,0.00,,---,0.00,VWS V14.01,2013-02-03 14:28:00,
2013-02-03 08:30:00,22.6,18.2,30.11,West,270,18.0,28.0,83,0.00,,---,0.00,VWS V14.01,2013-02-03 14:30:00,
2013-02-03 08:33:00,23.3,19.5,30.09,WNW,286,15.0,23.0,85,0.00,,---,0.00,VWS V14.01,2013-02-03 14:33:00,
2013-02-03 08:38:00,23.1,19.3,30.09,West,279,20.0,26.0,85,0.00,,---,0.00,VWS V14.01,2013-02-03 14:38:00,
2013-02-03 08:43:00,22.9,19.1,30.09,WNW,290,19.0,27.0,85,0.00,,---,0.00,VWS V14.01,2013-02-03 14:43:00,
2013-02-03 08:48:00,22.6,18.8,30.09,West,277,20.0,27.0,85,0.00,,---,0.00,VWS V14.01,2013-02-03 14:48:00,
2013-02-03 08:54:00,22.5,18.7,30.09,WNW,289,19.0,29.0,85,0.00,,---,0.00,VWS V14.01,2013-02-03 14:54:00,
2013-02-03 08:59:00,22.5,18.7,30.10,West,273,19.0,23.0,85,0.00,,---,0.00,VWS V14.01,2013-02-03 14:59:00,
2013-02-03 09:00:00,23.0,17.5,30.12,WNW,295,18.0,27.0,79,0.00,,---,0.00,VWS V14.01,2013-02-03 15:00:00,
2013-02-03 09:04:00,22.4,18.3,30.10,West,273,21.0,28.0,84,0.00,,---,0.00,VWS V14.01,2013-02-03 15:04:00,
2013-02-03 09:09:00,22.4,18.3,30.11,West,277,19.0,28.0,84,0.00,,---,0.00,VWS V14.01,2013-02-03 15:09:00,
2013-02-03 09:14:00,22.5,18.4,30.11,WNW,284,14.0,28.0,84,0.00,,---,0.00,VWS V14.01,2013-02-03 15:14:00,
2013-02-03 09:19:00,22.6,18.5,30.11,West,267,16.0,28.0,84,0.00,,---,0.00,VWS V14.01,2013-02-03 15:19:00,
2013-02-03 09:24:00,22.7,18.6,30.11,West,264,20.0,28.0,84,0.00,,---,0.00,VWS V14.01,2013-02-03 15:24:00,
2013-02-03 09:29:00,22.6,18.2,30.11,West,271,15.0,19.0,83,0.00,,---,0.00,VWS V14.01,2013-02-03 15:29:00,
2013-02-03 09:30:00,23.2,17.1,30.14,WNW,297,21.0,28.0,77,0.00,,---,0.00,VWS V14.01,2013-02-03 15:30:00,
2013-02-03 09:34:00,22.5,17.9,30.11,West,277,17.0,26.0,82,0.00,,---,0.00,VWS V14.01,2013-02-03 15:34:00,
2013-02-03 09:40:00,22.5,17.6,30.11,West,268,19.0,26.0,81,0.00,,---,0.00,VWS V14.01,2013-02-03 15:40:00,
2013-02-03 09:45:00,22.5,17.6,30.12,West,271,18.0,26.0,81,0.00,,---,0.00,VWS V14.01,2013-02-03 15:45:00,
2013-02-03 09:50:00,22.8,17.6,30.12,WNW,282,21.0,27.0,80,0.00,,---,0.00,VWS V14.01,2013-02-03 15:50:00,
2013-02-03 09:55:00,22.9,17.7,30.12,WNW,285,19.0,27.0,80,0.00,,---,0.00,VWS V14.01,2013-02-03 15:55:00,
2013-02-03 10:00:00,23.1,17.9,30.12,West,273,16.0,20.0,80,0.00,,---,0.00,VWS V14.01,2013-02-03 16:00:00,
2013-02-03 10:05:00,23.3,17.8,30.13,West,276,19.0,23.0,79,0.00,,---,0.00,VWS V14.01,2013-02-03 16:05:00,
2013-02-03 10:10:00,23.4,17.9,30.13,West,275,24.0,28.0,79,0.00,,---,0.00,VWS V14.01,2013-02-03 16:10:00,
2013-02-03 10:15:00,23.3,17.2,30.13,WNW,292,21.0,28.0,77,0.00,,---,0.00,VWS V14.01,2013-02-03 16:15:00,
2013-02-03 10:20:00,23.6,17.8,30.13,West,280,21.0,28.0,78,0.00,,---,0.00,VWS V14.01,2013-02-03 16:20:00,
2013-02-03 10:26:00,23.4,17.3,30.14,West,275,18.0,28.0,77,0.00,,---,0.00,VWS V14.01,2013-02-03 16:26:00,
2013-02-03 10:30:00,24.1,17.0,30.15,WNW,296,18.0,26.0,74,0.00,,---,0.00,VWS V14.01,2013-02-03 16:30:00,
2013-02-03 10:31:00,23.3,17.2,30.14,WNW,284,20.0,24.0,77,0.00,,---,0.00,VWS V14.01,2013-02-03 16:31:00,
2013-02-03 10:36:00,23.5,17.7,30.14,West,271,16.0,24.0,78,0.00,,---,0.00,VWS V14.01,2013-02-03 16:36:00,
2013-02-03 10:41:00,23.8,18.2,30.14,West,276,19.0,26.0,79,0.00,,---,0.00,VWS V14.01,2013-02-03 16:41:00,
2013-02-03 10:46:00,23.4,17.0,30.15,WNW,283,24.0,30.0,76,0.00,,---,0.00,VWS V14.01,2013-02-03 16:46:00,
2013-02-03 10:51:00,23.4,17.3,30.15,WNW,282,26.0,30.0,77,0.00,,---,0.00,VWS V14.01,2013-02-03 16:51:00,
2013-02-03 10:56:00,23.5,17.1,30.15,WNW,300,16.0,30.0,76,0.00,,---,0.00,VWS V14.01,2013-02-03 16:56:00,
2013-02-03 11:00:00,25.1,17.7,30.15,WNW,287,19.0,26.0,73,0.00,,---,0.00,VWS V14.01,2013-02-03 17:00:00,
2013-02-03 11:02:00,23.8,17.4,30.15,WNW,293,17.0,25.0,76,0.00,,---,0.00,VWS V14.01,2013-02-03 17:02:00,
2013-02-03 11:07:00,23.8,17.4,30.15,West,275,23.0,25.0,76,0.00,,---,0.00,VWS V14.01,2013-02-03 17:07:00,
2013-02-03 11:12:00,24.0,17.5,30.15,WNW,288,21.0,26.0,76,0.00,,---,0.00,VWS V14.01,2013-02-03 17:12:00,
2013-02-03 11:17:00,24.0,17.9,30.15,WNW,284,19.0,26.0,77,0.00,,---,0.00,VWS V14.01,2013-02-03 17:17:00,
2013-02-03 11:22:00,23.9,17.1,30.15,WNW,292,18.0,26.0,75,0.00,,---,0.00,VWS V14.01,2013-02-03 17:22:00,
2013-02-03 11:27:00,24.2,17.7,30.15,WNW,286,25.0,26.0,76,0.00,,---,0.00,VWS V14.01,2013-02-03 17:27:00,
2013-02-03 11:30:00,25.3,16.9,30.16,West,278,18.0,27.0,70,0.00,,---,0.00,VWS V14.01,2013-02-03 17:30:00,
2013-02-03 11:32:00,24.2,17.4,30.15,West,276,21.0,21.0,75,0.00,,---,0.00,VWS V14.01,2013-02-03 17:32:00,
2013-02-03 11:37:00,24.2,17.1,30.15,WNW,290,16.0,25.0,74,0.00,,---,0.00,VWS V14.01,2013-02-03 17:37:00,
2013-02-03 11:42:00,24.3,17.2,30.15,West,280,22.0,25.0,74,0.00,,---,0.00,VWS V14.01,2013-02-03 17:42:00,
2013-02-03 11:47:00,24.5,17.4,30.15,West,281,17.0,26.0,74,0.00,,---,0.00,VWS V14.01,2013-02-03 17:47:00,
2013-02-03 11:53:00,24.4,17.0,30.15,West,281,19.0,26.0,73,0.00,,---,0.00,VWS V14.01,2013-02-03 17:53:00,
2013-02-03 11:58:00,25.0,18.2,30.15,WNW,288,22.0,26.0,75,0.00,,---,0.00,VWS V14.01,2013-02-03 17:58:00,
2013-02-03 12:00:00,26.3,17.5,30.16,WNW,289,15.0,25.0,69,0.00,,---,0.00,VWS V14.01,2013-02-03 18:00:00,
2013-02-03 12:03:00,25.0,17.3,30.15,WNW,288,15.0,19.0,72,0.00,,---,0.00,VWS V14.01,2013-02-03 18:03:00,
2013-02-03 12:08:00,24.9,17.5,30.15,West,275,20.0,22.0,73,0.00,,---,0.00,VWS V14.01,2013-02-03 18:08:00,
2013-02-03 12:13:00,25.2,17.8,30.15,WNW,286,16.0,25.0,73,0.00,,---,0.00,VWS V14.01,2013-02-03 18:13:00,
2013-02-03 12:18:00,25.0,16.9,30.15,West,279,16.0,27.0,71,0.00,,---,0.00,VWS V14.01,2013-02-03 18:18:00,
2013-02-03 12:23:00,25.3,16.6,30.16,West,273,21.0,27.0,69,0.00,,---,0.00,VWS V14.01,2013-02-03 18:23:00,
2013-02-03 12:28:00,25.3,16.9,30.16,West,278,18.0,27.0,70,0.00,,---,0.00,VWS V14.01,2013-02-03 18:28:00,
2013-02-03 12:30:00,27.2,17.4,30.15,West,267,21.0,23.0,66,0.00,,---,0.00,VWS V14.01,2013-02-03 18:30:00,
2013-02-03 12:33:00,25.6,17.2,30.15,West,273,19.0,25.0,70,0.00,,---,0.00,VWS V14.01,2013-02-03 18:33:00,
2013-02-03 12:38:00,25.7,17.3,30.16,West,275,16.0,25.0,70,0.00,,---,0.00,VWS V14.01,2013-02-03 18:38:00,
2013-02-03 12:43:00,26.5,18.0,30.15,West,273,18.0,25.0,70,0.00,,---,0.00,VWS V14.01,2013-02-03 18:43:00,
2013-02-03 12:48:00,26.1,17.3,30.15,West,263,16.0,25.0,69,0.00,,---,0.00,VWS V14.01,2013-02-03 18:48:00,
2013-02-03 12:53:00,25.9,16.8,30.16,WNW,301,12.0,25.0,68,0.00,,---,0.00,VWS V14.01,2013-02-03 18:53:00,
2013-02-03 12:59:00,26.3,17.5,30.15,West,278,16.0,16.0,69,0.00,,---,0.00,VWS V14.01,2013-02-03 18:59:00,
2013-02-03 13:00:00,28.1,17.5,30.14,West,274,14.0,23.0,64,0.00,,---,0.00,VWS V14.01,2013-02-03 19:00:00,
2013-02-03 13:04:00,26.8,18.3,30.16,NW,306,16.0,21.0,70,0.00,,---,0.00,VWS V14.01,2013-02-03 19:04:00,
2013-02-03 13:09:00,26.7,17.2,30.16,West,271,18.0,21.0,67,0.00,,---,0.00,VWS V14.01,2013-02-03 19:09:00,
2013-02-03 13:14:00,26.7,17.2,30.16,West,264,17.0,21.0,67,0.00,,---,0.00,VWS V14.01,2013-02-03 19:14:00,
2013-02-03 13:19:00,27.1,18.6,30.15,WNW,294,15.0,23.0,70,0.00,,---,0.00,VWS V14.01,2013-02-03 19:19:00,
2013-02-03 13:24:00,27.2,17.7,30.15,West,274,18.0,23.0,67,0.00,,---,0.00,VWS V14.01,2013-02-03 19:24:00,
2013-02-03 13:29:00,27.2,17.4,30.15,West,272,18.0,21.0,66,0.00,,---,0.00,VWS V14.01,2013-02-03 19:29:00,
2013-02-03 13:30:00,28.7,18.4,30.15,WSW,257,18.0,25.0,65,0.00,,---,0.00,VWS V14.01,2013-02-03 19:30:00,
2013-02-03 13:34:00,27.8,17.6,30.15,West,276,18.0,22.0,65,0.00,,---,0.00,VWS V14.01,2013-02-03 19:34:00,
2013-02-03 13:39:00,27.8,16.9,30.14,West,267,16.0,22.0,63,0.00,,---,0.00,VWS V14.01,2013-02-03 19:39:00,
2013-02-03 13:45:00,27.5,16.9,30.14,West,275,17.0,23.0,64,0.00,,---,0.00,VWS V14.01,2013-02-03 19:45:00,
2013-02-03 13:50:00,27.8,17.2,30.14,WNW,282,16.0,23.0,64,0.00,,---,0.00,VWS V14.01,2013-02-03 19:50:00,
2013-02-03 13:55:00,28.1,18.2,30.14,West,263,19.0,23.0,66,0.00,,---,0.00,VWS V14.01,2013-02-03 19:55:00,
2013-02-03 14:00:00,28.1,17.9,30.15,WSW,256,15.0,19.0,65,0.00,,---,0.00,VWS V14.01,2013-02-03 20:00:00,
2013-02-03 14:05:00,28.3,17.7,30.15,WNW,285,17.0,25.0,64,0.00,,---,0.00,VWS V14.01,2013-02-03 20:05:00,
2013-02-03 14:10:00,28.3,17.7,30.15,West,271,12.0,25.0,64,0.00,,---,0.00,VWS V14.01,2013-02-03 20:10:00,
2013-02-03 14:15:00,28.5,17.5,30.15,West,263,14.0,25.0,63,0.00,,---,0.00,VWS V14.01,2013-02-03 20:15:00,
2013-02-03 14:20:00,28.7,18.4,30.15,West,280,14.0,25.0,65,0.00,,---,0.00,VWS V14.01,2013-02-03 20:20:00,
2013-02-03 14:25:00,28.7,18.1,30.15,West,267,19.0,25.0,64,0.00,,---,0.00,VWS V14.01,2013-02-03 20:25:00,
2013-02-03 14:30:00,28.7,17.7,30.15,West,270,15.0,20.0,63,0.00,,---,0.00,VWS V14.01,2013-02-03 20:30:00,
2013-02-03 14:35:00,28.8,17.8,30.15,West,275,22.0,23.0,63,0.00,,---,0.00,VWS V14.01,2013-02-03 20:35:00,
2013-02-03 14:41:00,28.9,17.9,30.15,WNW,284,15.0,23.0,63,0.00,,---,0.00,VWS V14.01,2013-02-03 20:41:00,
2013-02-03 14:46:00,28.6,17.6,30.15,West,271,14.0,23.0,63,0.00,,---,0.00,VWS V14.01,2013-02-03 20:46:00,
2013-02-03 14:51:00,28.9,18.3,30.15,West,269,15.0,23.0,64,0.00,,---,0.00,VWS V14.01,2013-02-03 20:51:00,
2013-02-03 14:56:00,29.2,17.8,30.15,WNW,282,14.0,23.0,62,0.00,,---,0.00,VWS V14.01,2013-02-03 20:56:00,
2013-02-03 15:00:00,28.1,18.2,30.14,WNW,284,16.0,21.0,66,0.00,,---,0.00,VWS V14.01,2013-02-03 21:00:00,
2013-02-03 15:01:00,29.0,17.2,30.15,WNW,287,11.0,16.0,61,0.00,,---,0.00,VWS V14.01,2013-02-03 21:01:00,
2013-02-03 15:06:00,28.5,17.5,30.15,WNW,290,11.0,19.0,63,0.00,,---,0.00,VWS V14.01,2013-02-03 21:06:00,
2013-02-03 15:11:00,28.1,16.4,30.15,West,280,9.0,19.0,61,0.00,,---,0.00,VWS V14.01,2013-02-03 21:11:00,
2013-02-03 15:16:00,28.3,17.0,30.15,West,280,12.0,19.0,62,0.00,,---,0.00,VWS V14.01,2013-02-03 21:16:00,
2013-02-03 15:21:00,28.5,17.5,30.15,West,260,10.0,19.0,63,0.00,,---,0.00,VWS V14.01,2013-02-03 21:21:00,
2013-02-03 15:26:00,28.7,17.3,30.15,West,259,13.0,20.0,62,0.00,,---,0.00,VWS V14.01,2013-02-03 21:26:00,
2013-02-03 15:30:00,28.3,17.7,30.12,WSW,252,7.0,16.0,64,0.00,,---,0.00,VWS V14.01,2013-02-03 21:30:00,
2013-02-03 15:31:00,28.7,17.7,30.14,West,267,12.0,18.0,63,0.00,,---,0.00,VWS V14.01,2013-02-03 21:31:00,
2013-02-03 15:36:00,28.4,17.1,30.14,West,273,19.0,19.0,62,0.00,,---,0.00,VWS V14.01,2013-02-03 21:36:00,
2013-02-03 15:41:00,28.2,16.9,30.14,West,265,17.0,21.0,62,0.00,,---,0.00,VWS V14.01,2013-02-03 21:41:00,
2013-02-03 15:47:00,28.2,17.2,30.14,West,270,15.0,21.0,63,0.00,,---,0.00,VWS V14.01,2013-02-03 21:47:00,
2013-02-03 15:52:00,28.1,17.1,30.14,West,270,12.0,21.0,63,0.00,,---,0.00,VWS V14.01,2013-02-03 21:52:00,
2013-02-03 15:57:00,28.1,17.1,30.14,West,273,15.0,21.0,63,0.00,,---,0.00,VWS V14.01,2013-02-03 21:57:00,
2013-02-03 16:00:00,28.1,17.5,30.11,WSW,250,5.0,16.0,64,0.00,,---,0.00,VWS V14.01,2013-02-03 22:00:00,
2013-02-03 16:02:00,28.2,18.0,30.13,West,273,10.0,16.0,65,0.00,,---,0.00,VWS V14.01,2013-02-03 22:02:00,
2013-02-03 16:07:00,28.2,17.6,30.13,WSW,252,9.0,16.0,64,0.00,,---,0.00,VWS V14.01,2013-02-03 22:07:00,
2013-02-03 16:12:00,28.2,17.6,30.13,West,263,11.0,16.0,64,0.00,,---,0.00,VWS V14.01,2013-02-03 22:12:00,
2013-02-03 16:17:00,28.3,18.1,30.12,West,263,11.0,16.0,65,0.00,,---,0.00,VWS V14.01,2013-02-03 22:17:00,
2013-02-03 16:22:00,28.3,17.7,30.12,West,269,12.0,16.0,64,0.00,,---,0.00,VWS V14.01,2013-02-03 22:22:00,
2013-02-03 16:27:00,28.3,17.7,30.12,WSW,257,8.0,16.0,64,0.00,,---,0.00,VWS V14.01,2013-02-03 22:27:00,
2013-02-03 16:30:00,28.1,16.8,30.10,WSW,238,6.0,9.0,62,0.00,,---,0.00,VWS V14.01,2013-02-03 22:30:00,
2013-02-03 16:32:00,28.3,18.1,30.12,WSW,246,9.0,13.0,65,0.00,,---,0.00,VWS V14.01,2013-02-03 22:32:00,
2013-02-03 16:38:00,28.3,17.0,30.12,WSW,251,13.0,16.0,62,0.00,,---,0.00,VWS V14.01,2013-02-03 22:38:00,
2013-02-03 16:43:00,28.1,16.4,30.11,West,261,7.0,16.0,61,0.00,,---,0.00,VWS V14.01,2013-02-03 22:43:00,
2013-02-03 16:48:00,28.1,16.8,30.11,West,264,6.0,16.0,62,0.00,,---,0.00,VWS V14.01,2013-02-03 22:48:00,
2013-02-03 16:53:00,28.0,17.0,30.11,West,259,8.0,16.0,63,0.00,,---,0.00,VWS V14.01,2013-02-03 22:53:00,
2013-02-03 16:58:00,28.1,17.5,30.11,West,260,6.0,16.0,64,0.00,,---,0.00,VWS V14.01,2013-02-03 22:58:00,
2013-02-03 17:00:00,28.0,18.1,30.10,WSW,238,3.0,9.0,66,0.00,,---,0.00,VWS V14.01,2013-02-03 23:00:00,
2013-02-03 17:03:00,28.1,17.1,30.11,WSW,238,4.0,9.0,63,0.00,,---,0.00,VWS V14.01,2013-02-03 23:03:00,
2013-02-03 17:08:00,28.2,18.0,30.11,WSW,253,5.0,9.0,65,0.00,,---,0.00,VWS V14.01,2013-02-03 23:08:00,
2013-02-03 17:13:00,28.2,18.0,30.10,SW,232,8.0,9.0,65,0.00,,---,0.00,VWS V14.01,2013-02-03 23:13:00,
2013-02-03 17:18:00,28.2,16.5,30.10,WSW,252,6.0,9.0,61,0.00,,---,0.00,VWS V14.01,2013-02-03 23:18:00,
2013-02-03 17:24:00,28.1,17.1,30.10,SW,233,3.0,9.0,63,0.00,,---,0.00,VWS V14.01,2013-02-03 23:24:00,
2013-02-03 17:29:00,28.1,16.8,30.10,WSW,250,2.0,6.0,62,0.00,,---,0.00,VWS V14.01,2013-02-03 23:29:00,
2013-02-03 17:30:00,27.7,18.2,30.10,SW,229,2.0,6.0,67,0.00,,---,0.00,VWS V14.01,2013-02-03 23:30:00,
2013-02-03 17:34:00,28.1,17.5,30.10,WSW,241,5.0,8.0,64,0.00,,---,0.00,VWS V14.01,2013-02-03 23:34:00,
2013-02-03 17:39:00,28.1,17.9,30.10,West,264,4.0,8.0,65,0.00,,---,0.00,VWS V14.01,2013-02-03 23:39:00,
2013-02-03 17:44:00,28.1,17.9,30.10,SW,232,2.0,9.0,65,0.00,,---,0.00,VWS V14.01,2013-02-03 23:44:00,
2013-02-03 17:49:00,28.0,17.8,30.10,WSW,240,0.0,9.0,65,0.00,,---,0.00,VWS V14.01,2013-02-03 23:49:00,
2013-02-03 17:54:00,28.0,17.8,30.10,SW,236,0.0,9.0,65,0.00,,---,0.00,VWS V14.01,2013-02-03 23:54:00,
2013-02-03 17:59:00,28.0,18.1,30.10,SW,236,4.0,4.0,66,0.00,,---,0.00,VWS V14.01,2013-02-03 23:59:00,
2013-02-03 18:00:00,26.9,17.4,30.11,SW,231,0.0,4.0,67,0.00,,---,0.00,VWS V14.01,2013-02-04 00:00:00,
2013-02-03 18:04:00,27.9,17.7,30.10,WSW,240,5.0,6.0,65,0.00,,---,0.00,VWS V14.01,2013-02-04 00:04:00,
2013-02-03 18:09:00,27.9,18.4,30.10,SW,226,3.0,6.0,67,0.00,,---,0.00,VWS V14.01,2013-02-04 00:09:00,
2013-02-03 18:14:00,27.9,18.4,30.10,SW,232,0.0,6.0,67,0.00,,---,0.00,VWS V14.01,2013-02-04 00:14:00,
2013-02-03 18:19:00,27.8,18.3,30.11,SW,236,1.0,6.0,67,0.00,,---,0.00,VWS V14.01,2013-02-04 00:19:00,
2013-02-03 18:24:00,27.8,18.3,30.11,SW,230,2.0,6.0,67,0.00,,---,0.00,VWS V14.01,2013-02-04 00:24:00,
2013-02-03 18:29:00,27.7,17.8,30.10,SW,230,1.0,2.0,66,0.00,,---,0.00,VWS V14.01,2013-02-04 00:29:00,
2013-02-03 18:30:00,26.1,17.3,30.11,SSW,199,1.0,2.0,69,0.00,,---,0.00,VWS V14.01,2013-02-04 00:30:00,
2013-02-03 18:34:00,27.5,18.0,30.11,SW,235,1.0,3.0,67,0.00,,---,0.00,VWS V14.01,2013-02-04 00:34:00,
2013-02-03 18:39:00,27.4,17.9,30.11,WSW,239,1.0,4.0,67,0.00,,---,0.00,VWS V14.01,2013-02-04 00:39:00,
2013-02-03 18:44:00,27.2,18.0,30.11,SW,230,1.0,4.0,68,0.00,,---,0.00,VWS V14.01,2013-02-04 00:44:00,
2013-02-03 18:50:00,27.1,17.6,30.10,SW,231,0.0,4.0,67,0.00,,---,0.00,VWS V14.01,2013-02-04 00:50:00,
2013-02-03 18:55:00,27.0,17.9,30.10,SW,231,0.0,4.0,68,0.00,,---,0.00,VWS V14.01,2013-02-04 00:55:00,
2013-02-03 19:00:00,26.9,17.4,30.11,SW,231,0.0,1.0,67,0.00,,---,0.00,VWS V14.01,2013-02-04 01:00:00,
2013-02-03 19:05:00,26.7,17.6,30.11,SW,227,1.0,1.0,68,0.00,,---,0.00,VWS V14.01,2013-02-04 01:05:00,
2013-02-03 19:10:00,26.6,17.8,30.10,SW,221,0.0,2.0,69,0.00,,---,0.00,VWS V14.01,2013-02-04 01:10:00,
2013-02-03 19:15:00,26.4,17.3,30.11,SW,221,0.0,2.0,68,0.00,,---,0.00,VWS V14.01,2013-02-04 01:15:00,
2013-02-03 19:20:00,26.2,17.1,30.11,SW,220,1.0,2.0,68,0.00,,---,0.00,VWS V14.01,2013-02-04 01:20:00,
2013-02-03 19:25:00,26.1,17.3,30.11,SSW,200,1.0,2.0,69,0.00,,---,0.00,VWS V14.01,2013-02-04 01:25:00,
2013-02-03 19:30:00,26.0,17.2,30.11,SSW,199,2.0,2.0,69,0.00,,---,0.00,VWS V14.01,2013-02-04 01:30:00,
2013-02-03 19:35:00,26.0,17.2,30.11,SSW,198,1.0,2.0,69,0.00,,---,0.00,VWS V14.01,2013-02-04 01:35:00,
2013-02-03 19:40:00,25.9,17.1,30.11,SSW,197,1.0,3.0,69,0.00,,---,0.00,VWS V14.01,2013-02-04 01:40:00,
2013-02-03 19:45:00,25.8,17.0,30.11,SSW,194,0.0,3.0,69,0.00,,---,0.00,VWS V14.01,2013-02-04 01:45:00,
2013-02-03 19:50:00,25.7,17.0,30.11,SSW,192,0.0,3.0,69,0.00,,---,0.00,VWS V14.01,2013-02-04 01:50:00,
2013-02-03 19:56:00,25.6,17.2,30.11,South,171,1.0,3.0,70,0.00,,---,0.00,VWS V14.01,2013-02-04 01:56:00,
2013-02-03 20:00:00,24.2,17.4,30.10,SSE,149,4.0,4.0,75,0.00,,---,0.00,VWS V14.01,2013-02-04 02:00:00,
2013-02-03 20:01:00,25.5,17.1,30.11,South,170,1.0,2.0,70,0.00,,---,0.00,VWS V14.01,2013-02-04 02:01:00,
2013-02-03 20:06:00,25.3,16.9,30.11,South,169,0.0,2.0,70,0.00,,---,0.00,VWS V14.01,2013-02-04 02:06:00,
2013-02-03 20:11:00,24.9,16.8,30.10,SSE,159,3.0,3.0,71,0.00,,---,0.00,VWS V14.01,2013-02-04 02:11:00,
2013-02-03 20:16:00,24.6,17.2,30.10,SSE,148,3.0,4.0,73,0.00,,---,0.00,VWS V14.01,2013-02-04 02:16:00,
2013-02-03 20:21:00,24.4,17.3,30.10,SSE,149,3.0,4.0,74,0.00,,---,0.00,VWS V14.01,2013-02-04 02:21:00,
2013-02-03 20:26:00,24.5,17.4,30.10,SSE,149,3.0,4.0,74,0.00,,---,0.00,VWS V14.01,2013-02-04 02:26:00,
2013-02-03 20:30:00,23.8,16.7,30.10,SE,141,6.0,6.0,74,0.00,,---,0.00,VWS V14.01,2013-02-04 02:30:00,
2013-02-03 20:31:00,24.7,17.6,30.10,SSE,149,3.0,4.0,74,0.00,,---,0.00,VWS V14.01,2013-02-04 02:31:00,
2013-02-03 20:36:00,24.8,17.7,30.10,SSE,149,2.0,4.0,74,0.00,,---,0.00,VWS V14.01,2013-02-04 02:36:00,
2013-02-03 20:41:00,24.8,17.7,30.11,SSE,149,2.0,4.0,74,0.00,,---,0.00,VWS V14.01,2013-02-04 02:41:00,
2013-02-03 20:46:00,24.7,17.6,30.10,SSE,149,3.0,4.0,74,0.00,,---,0.00,VWS V14.01,2013-02-04 02:46:00,
2013-02-03 20:51:00,24.4,17.6,30.10,SSE,149,2.0,4.0,75,0.00,,---,0.00,VWS V14.01,2013-02-04 02:51:00,
2013-02-03 20:56:00,24.2,17.4,30.10,SSE,149,3.0,4.0,75,0.00,,---,0.00,VWS V14.01,2013-02-04 02:56:00,
2013-02-03 21:00:00,23.1,17.0,30.08,SE,141,4.0,6.0,77,0.00,,---,0.00,VWS V14.01,2013-02-04 03:00:00,
2013-02-03 21:02:00,24.1,17.0,30.10,SSE,148,3.0,4.0,74,0.00,,---,0.00,VWS V14.01,2013-02-04 03:02:00,
2013-02-03 21:07:00,23.9,17.1,30.10,SE,146,3.0,4.0,75,0.00,,---,0.00,VWS V14.01,2013-02-04 03:07:00,
2013-02-03 21:12:00,23.9,16.8,30.10,SE,143,4.0,4.0,74,0.00,,---,0.00,VWS V14.01,2013-02-04 03:12:00,
2013-02-03 21:17:00,23.9,16.8,30.10,SE,132,3.0,4.0,74,0.00,,---,0.00,VWS V14.01,2013-02-04 03:17:00,
2013-02-03 21:22:00,23.9,16.8,30.10,SE,138,5.0,5.0,74,0.00,,---,0.00,VWS V14.01,2013-02-04 03:22:00,
2013-02-03 21:27:00,23.9,17.1,30.10,SE,141,5.0,6.0,75,0.00,,---,0.00,VWS V14.01,2013-02-04 03:27:00,
2013-02-03 21:30:00,23.1,17.0,30.06,SE,141,8.0,8.0,77,0.00,,---,0.00,VWS V14.01,2013-02-04 03:30:00,
2013-02-03 21:32:00,23.6,16.9,30.10,SE,142,3.0,6.0,75,0.00,,---,0.00,VWS V14.01,2013-02-04 03:32:00,
2013-02-03 21:37:00,23.5,16.8,30.10,SE,142,3.0,6.0,75,0.00,,---,0.00,VWS V14.01,2013-02-04 03:37:00,
2013-02-03 21:42:00,23.3,16.6,30.09,SSE,150,4.0,6.0,75,0.00,,---,0.00,VWS V14.01,2013-02-04 03:42:00,
2013-02-03 21:47:00,23.2,16.8,30.09,SSE,150,3.0,6.0,76,0.00,,---,0.00,VWS V14.01,2013-02-04 03:47:00,
2013-02-03 21:52:00,23.1,17.0,30.09,SE,144,4.0,6.0,77,0.00,,---,0.00,VWS V14.01,2013-02-04 03:52:00,
2013-02-03 21:57:00,23.1,17.0,30.09,SE,143,4.0,6.0,77,0.00,,---,0.00,VWS V14.01,2013-02-04 03:57:00,
2013-02-03 22:00:00,24.0,18.4,30.04,SSE,147,6.0,9.0,79,0.00,,---,0.00,VWS V14.01,2013-02-04 04:00:00,
2013-02-03 22:02:00,23.1,17.0,30.08,SE,143,4.0,5.0,77,0.00,,---,0.00,VWS V14.01,2013-02-04 04:02:00,
2013-02-03 22:07:00,22.9,16.8,30.08,SE,142,4.0,5.0,77,0.00,,---,0.00,VWS V14.01,2013-02-04 04:07:00,
2013-02-03 22:13:00,22.8,17.0,30.08,SE,143,5.0,6.0,78,0.00,,---,0.00,VWS V14.01,2013-02-04 04:13:00,
2013-02-03 22:18:00,22.8,16.7,30.07,SE,140,5.0,6.0,77,0.00,,---,0.00,VWS V14.01,2013-02-04 04:18:00,
2013-02-03 22:23:00,22.9,16.8,30.07,SE,138,5.0,7.0,77,0.00,,---,0.00,VWS V14.01,2013-02-04 04:23:00,
2013-02-03 22:28:00,23.1,17.0,30.06,SE,143,7.0,7.0,77,0.00,,---,0.00,VWS V14.01,2013-02-04 04:28:00,
2013-02-03 22:30:00,24.6,19.0,30.03,SE,131,3.0,8.0,79,0.00,,---,0.00,VWS V14.01,2013-02-04 04:30:00,
2013-02-03 22:33:00,23.3,17.5,30.06,SE,146,5.0,8.0,78,0.00,,---,0.00,VWS V14.01,2013-02-04 04:33:00,
2013-02-03 22:38:00,23.1,17.3,30.06,SE,144,6.0,8.0,78,0.00,,---,0.00,VWS V14.01,2013-02-04 04:38:00,
2013-02-03 22:43:00,23.3,17.5,30.06,SE,143,7.0,8.0,78,0.00,,---,0.00,VWS V14.01,2013-02-04 04:43:00,
2013-02-03 22:48:00,23.4,17.9,30.05,SE,143,5.0,8.0,79,0.00,,---,0.00,VWS V14.01,2013-02-04 04:48:00,
2013-02-03 22:53:00,23.8,18.2,30.05,SSE,148,6.0,9.0,79,0.00,,---,0.00,VWS V14.01,2013-02-04 04:53:00,
2013-02-03 22:59:00,24.0,18.5,30.05,SE,140,5.0,6.0,79,0.00,,---,0.00,VWS V14.01,2013-02-04 04:59:00,
2013-02-03 23:00:00,24.1,18.5,30.04,SE,139,7.0,7.0,79,0.00,,---,0.00,VWS V14.01,2013-02-04 05:00:00,
2013-02-03 23:01:00,24.1,18.5,30.04,SE,137,5.0,7.0,79,0.00,,---,0.00,VWS V14.01,2013-02-04 05:01:00,
2013-02-03 23:02:00,24.2,18.6,30.04,SE,141,7.0,7.0,79,0.00,,---,0.00,VWS V14.01,2013-02-04 05:02:00,
2013-02-03 23:03:00,24.2,18.6,30.04,SE,143,5.0,8.0,79,0.00,,---,0.00,VWS V14.01,2013-02-04 05:03:00,
2013-02-03 23:08:00,24.4,18.8,30.04,SE,133,5.0,8.0,79,0.00,,---,0.00,VWS V14.01,2013-02-04 05:08:00,
2013-02-03 23:13:00,24.4,19.1,30.04,SE,138,5.0,8.0,80,0.00,,---,0.00,VWS V14.01,2013-02-04 05:13:00,
2013-02-03 23:18:00,24.4,19.1,30.03,SE,133,5.0,8.0,80,0.00,,---,0.00,VWS V14.01,2013-02-04 05:18:00,
2013-02-03 23:23:00,24.5,19.2,30.03,ESE,123,5.0,8.0,80,0.00,,---,0.00,VWS V14.01,2013-02-04 05:23:00,
2013-02-03 23:28:00,24.6,19.0,30.03,SE,131,3.0,3.0,79,0.00,,---,0.00,VWS V14.01,2013-02-04 05:28:00,
2013-02-03 23:30:00,24.5,19.5,30.00,SSE,150,5.0,8.0,81,0.00,,---,0.00,VWS V14.01,2013-02-04 05:30:00,
2013-02-03 23:34:00,24.7,19.1,30.03,SE,142,8.0,9.0,79,0.00,,---,0.00,VWS V14.01,2013-02-04 05:34:00,
2013-02-03 23:39:00,24.7,19.1,30.03,SE,137,4.0,9.0,79,0.00,,---,0.00,VWS V14.01,2013-02-04 05:39:00,
2013-02-03 23:44:00,24.8,18.9,30.03,SE,142,7.0,9.0,78,0.00,,---,0.00,VWS V14.01,2013-02-04 05:44:00,
2013-02-03 23:49:00,24.7,19.1,30.02,SE,144,6.0,9.0,79,0.00,,---,0.00,VWS V14.01,2013-02-04 05:49:00,
2013-02-03 23:54:00,24.4,18.8,30.02,SE,146,4.0,9.0,79,0.00,,---,0.00,VWS V14.01,2013-02-04 05:54:00,
2013-02-03 23:59:00,24.3,19.0,30.02,SE,144,5.0,6.0,80,0.00,,---,0.00,VWS V14.01,2013-02-04 05:59:00,